Time;durP1;ratioP1;P1;durP2;ratioP2;P2;SDS_P1;SDS_P2;PMS_P1;PMS_P2;Temp;Humidity;BMP_temperature;BMP_pressure;BME280_temperature;BME280_humidity;BME280_pressure;Samples;Min_cycle;Max_cycle;Signal;HPM_P1;HPM_P2
2022/12/08 00:01:08;;;;;;;18.27;11.27;;;4.40;99.90;;;;;;4945924;29;20216;-84
2022/12/08 00:03:34;;;;;;;20.53;11.83;;;4.40;99.90;;;;;;4950174;29;20208;-83
2022/12/08 00:11:31;;;;;;;20.53;11.83;;;4.50;99.90;;;;;;4939608;29;20299;-81
2022/12/08 00:13:57;;;;;;;19.87;12.33;;;4.50;99.90;;;;;;4938973;29;20681;-80
2022/12/08 00:16:22;;;;;;;19.73;12.03;;;4.50;99.90;;;;;;4939407;29;20247;-84
2022/12/08 00:18:48;;;;;;;19.50;12.03;;;4.60;99.90;;;;;;4923483;29;20221;-83
2022/12/08 00:21:14;;;;;;;19.60;12.53;;;4.50;99.90;;;;;;4940611;29;20562;-87
2022/12/08 00:23:40;;;;;;;21.23;12.50;;;4.40;99.90;;;;;;4940058;29;20168;-86
2022/12/08 00:26:06;;;;;;;21.60;11.80;;;4.50;99.90;;;;;;4945557;29;20181;-88
2022/12/08 00:28:33;;;;;;;20.47;12.20;;;4.50;99.90;;;;;;4934319;29;20180;-82
2022/12/08 00:30:59;;;;;;;19.50;12.13;;;4.40;99.90;;;;;;4942307;29;20235;-86
2022/12/08 00:33:27;;;;;;;19.47;11.47;;;4.40;99.90;;;;;;4943326;29;20204;-87
2022/12/08 00:35:53;;;;;;;20.63;11.67;;;4.50;99.90;;;;;;4957954;29;20156;-79
2022/12/08 00:38:19;;;;;;;18.93;11.37;;;4.50;99.90;;;;;;4950893;29;20215;-84
2022/12/08 00:40:46;;;;;;;22.57;12.70;;;4.50;99.90;;;;;;4940252;29;20179;-86
2022/12/08 00:43:12;;;;;;;19.03;12.37;;;4.50;99.90;;;;;;4925035;29;20590;-83
2022/12/08 00:45:38;;;;;;;19.47;12.07;;;4.50;99.90;;;;;;4924203;29;20189;-81
2022/12/08 00:48:05;;;;;;;20.93;12.43;;;4.50;99.90;;;;;;4939659;29;20183;-82
2022/12/08 00:50:32;;;;;;;23.00;13.33;;;4.50;99.90;;;;;;4938576;29;20212;-85
2022/12/08 00:52:57;;;;;;;22.73;12.80;;;4.50;99.90;;;;;;4938802;29;20189;-87
2022/12/08 00:55:23;;;;;;;19.57;12.07;;;4.50;99.90;;;;;;4923807;29;20184;-88
2022/12/08 00:57:50;;;;;;;19.83;12.57;;;4.50;99.90;;;;;;4933685;29;20200;-86
2022/12/08 01:00:16;;;;;;;23.00;14.40;;;4.50;99.90;;;;;;4922820;29;20176;-88
2022/12/08 01:02:42;;;;;;;19.10;13.17;;;4.50;99.90;;;;;;4938935;29;20196;-87
2022/12/08 01:05:08;;;;;;;22.17;13.70;;;4.50;99.90;;;;;;4938759;29;20195;-87
2022/12/08 01:07:34;;;;;;;23.47;13.03;;;4.50;99.90;;;;;;4949509;29;20179;-84
2022/12/08 01:10:00;;;;;;;21.23;13.60;;;4.50;99.90;;;;;;4942844;29;20624;-87
2022/12/08 01:12:29;;;;;;;23.80;14.37;;;4.50;99.90;;;;;;4939492;29;20172;-85
2022/12/08 01:14:55;;;;;;;23.10;12.83;;;4.50;99.90;;;;;;4938301;29;20169;-88
2022/12/08 01:17:21;;;;;;;23.17;14.70;;;4.50;99.90;;;;;;4950891;29;20536;-86
2022/12/08 01:19:47;;;;;;;24.83;14.00;;;4.40;99.90;;;;;;4943185;29;20204;-88
2022/12/08 01:22:12;;;;;;;22.67;14.13;;;4.40;99.90;;;;;;4938601;29;20642;-88
2022/12/08 01:24:38;;;;;;;24.87;14.13;;;4.50;99.90;;;;;;4937984;29;20263;-86
2022/12/08 01:27:04;;;;;;;23.63;14.33;;;4.50;99.90;;;;;;4938039;29;20542;-86
2022/12/08 01:29:30;;;;;;;24.43;14.40;;;4.50;99.90;;;;;;4938167;29;20210;-88
2022/12/08 01:31:58;;;;;;;23.77;14.80;;;4.40;99.90;;;;;;4938485;29;20226;-86
2022/12/08 01:34:24;;;;;;;22.23;13.33;;;4.40;99.90;;;;;;4943240;29;20185;-84
2022/12/08 01:36:50;;;;;;;23.63;13.97;;;4.30;99.90;;;;;;4941505;29;20187;-85
2022/12/08 01:39:17;;;;;;;26.87;16.07;;;4.30;99.90;;;;;;4921772;29;20215;-87
2022/12/08 01:41:45;;;;;;;23.40;14.67;;;4.30;99.90;;;;;;4940451;29;20258;-87
2022/12/08 01:44:10;;;;;;;25.23;15.03;;;4.30;99.90;;;;;;4943461;29;20238;-86
2022/12/08 01:46:40;;;;;;;26.70;14.83;;;4.30;99.90;;;;;;4949747;29;20184;-86
2022/12/08 01:49:14;;;;;;;23.67;14.97;;;4.30;99.90;;;;;;4939232;29;20176;-86
2022/12/08 01:52:10;;;;;;;27.87;15.67;;;4.20;99.90;;;;;;4939054;29;20170;-84
2022/12/08 01:54:59;;;;;;;23.37;13.83;;;4.30;99.90;;;;;;4938480;29;20172;-84
2022/12/08 01:57:36;;;;;;;28.97;14.57;;;4.30;99.90;;;;;;4937455;29;20172;-86
2022/12/08 02:00:08;;;;;;;25.07;14.20;;;4.30;99.90;;;;;;4937450;29;20670;-80
2022/12/08 02:02:57;;;;;;;25.63;14.33;;;4.30;99.90;;;;;;4937749;29;20282;-86
2022/12/08 02:05:31;;;;;;;32.73;14.50;;;4.30;99.90;;;;;;4942564;29;20171;-83
2022/12/08 02:07:59;;;;;;;30.60;16.27;;;4.30;99.90;;;;;;4949188;29;20168;-85
2022/12/08 02:10:29;;;;;;;29.53;15.77;;;4.20;99.90;;;;;;4954230;29;20200;-87
2022/12/08 02:12:57;;;;;;;25.93;14.43;;;4.10;99.90;;;;;;4939956;29;20260;-86
2022/12/08 02:15:31;;;;;;;29.60;15.43;;;4.20;99.90;;;;;;4942202;29;20610;-86
2022/12/08 02:18:16;;;;;;;25.93;14.93;;;4.20;99.90;;;;;;4940812;29;20668;-87
2022/12/08 02:20:56;;;;;;;30.10;14.87;;;4.10;99.90;;;;;;4940872;29;20247;-83
2022/12/08 02:23:31;;;;;;;23.90;15.03;;;4.30;99.90;;;;;;4943244;29;20173;-80
2022/12/08 02:26:18;;;;;;;24.47;14.27;;;4.30;99.90;;;;;;4951113;29;20233;-86
2022/12/08 02:28:49;;;;;;;26.47;15.00;;;4.30;99.90;;;;;;4938313;29;20172;-83
2022/12/08 02:31:23;;;;;;;28.33;15.43;;;4.30;99.90;;;;;;4937705;29;20170;-86
2022/12/08 02:34:15;;;;;;;21.87;13.37;;;4.30;99.90;;;;;;4941152;29;20265;-85
2022/12/08 02:37:00;;;;;;;28.17;15.63;;;4.20;99.90;;;;;;4940585;29;20174;-82
2022/12/08 02:39:43;;;;;;;24.50;14.20;;;4.30;99.90;;;;;;4938085;29;20213;-85
2022/12/08 02:42:30;;;;;;;24.40;14.87;;;4.30;99.90;;;;;;4936773;29;20182;-84
2022/12/08 02:45:12;;;;;;;25.80;14.17;;;4.30;99.90;;;;;;4950071;29;20166;-90
2022/12/08 02:47:39;;;;;;;28.67;14.87;;;4.40;99.90;;;;;;4940711;29;20537;-83
2022/12/08 02:50:06;;;;;;;30.13;16.20;;;4.40;99.90;;;;;;4927062;29;20207;-81
2022/12/08 02:52:32;;;;;;;26.93;15.23;;;4.40;99.90;;;;;;4945429;29;20192;-79
2022/12/08 02:55:04;;;;;;;27.40;14.40;;;4.40;99.90;;;;;;4947403;29;20195;-81
2022/12/08 02:57:58;;;;;;;26.07;14.10;;;4.40;99.90;;;;;;4946371;29;20168;-87
2022/12/08 03:00:27;;;;;;;27.97;14.60;;;4.50;99.90;;;;;;4941555;29;20219;-80
2022/12/08 03:03:23;;;;;;;24.27;14.40;;;4.50;99.90;;;;;;4940767;29;20168;-85
2022/12/08 03:06:05;;;;;;;31.53;14.43;;;4.50;99.90;;;;;;4943247;29;20652;-88
2022/12/08 03:08:52;;;;;;;28.70;15.83;;;4.40;99.90;;;;;;4941853;29;20166;-84
2022/12/08 03:11:43;;;;;;;29.73;15.67;;;4.40;99.90;;;;;;4950877;29;20167;-80
2022/12/08 03:14:13;;;;;;;28.23;14.73;;;4.40;99.90;;;;;;4944986;29;20182;-86
2022/12/08 03:16:42;;;;;;;26.37;14.67;;;4.40;99.90;;;;;;4940488;29;20188;-86
2022/12/08 03:19:19;;;;;;;25.87;13.47;;;4.30;99.90;;;;;;4951767;29;20239;-86
2022/12/08 03:22:01;;;;;;;27.13;14.63;;;4.40;99.90;;;;;;4948176;29;20168;-87
2022/12/08 03:24:38;;;;;;;30.13;15.37;;;4.30;99.90;;;;;;4955731;29;20183;-85
2022/12/08 03:27:22;;;;;;;26.43;14.77;;;4.40;99.90;;;;;;4942557;29;20621;-86
2022/12/08 03:29:55;;;;;;;24.93;14.40;;;4.40;99.90;;;;;;4951195;29;20207;-85
2022/12/08 03:32:35;;;;;;;26.53;14.53;;;4.40;99.90;;;;;;4941115;29;20172;-83
2022/12/08 03:35:07;;;;;;;24.80;13.27;;;4.40;99.90;;;;;;4940234;29;20202;-84
2022/12/08 03:37:35;;;;;;;27.57;14.57;;;4.40;99.90;;;;;;4925037;29;20174;-82
2022/12/08 03:40:03;;;;;;;28.43;14.90;;;4.40;99.90;;;;;;4946339;29;20258;-81
2022/12/08 03:42:29;;;;;;;27.30;14.93;;;4.40;99.90;;;;;;4944675;29;20176;-86
2022/12/08 03:44:55;;;;;;;27.23;14.17;;;4.40;99.90;;;;;;4940331;29;20176;-81
2022/12/08 03:47:20;;;;;;;27.77;14.53;;;4.40;99.90;;;;;;4940333;29;20181;-84
2022/12/08 03:49:46;;;;;;;24.73;12.87;;;4.40;99.90;;;;;;4941023;29;20193;-84
2022/12/08 03:52:12;;;;;;;30.30;14.97;;;4.50;99.90;;;;;;4941526;29;20187;-86
2022/12/08 03:54:38;;;;;;;26.33;13.67;;;4.40;99.90;;;;;;4941137;29;20255;-86
2022/12/08 03:57:04;;;;;;;27.10;15.13;;;4.30;99.90;;;;;;4940444;29;20197;-86
2022/12/08 03:59:31;;;;;;;25.83;14.90;;;4.30;99.90;;;;;;4940010;29;20625;-84
2022/12/08 04:01:57;;;;;;;25.37;14.70;;;4.30;99.90;;;;;;4949167;29;20249;-87
2022/12/08 04:04:22;;;;;;;25.70;14.67;;;4.40;99.90;;;;;;4941770;29;20229;-80
2022/12/08 04:06:49;;;;;;;24.93;14.43;;;4.40;99.90;;;;;;4942010;29;20176;-87
2022/12/08 04:09:15;;;;;;;26.13;13.83;;;4.30;99.90;;;;;;4928649;29;20178;-88
2022/12/08 04:11:41;;;;;;;27.20;14.07;;;4.40;99.90;;;;;;4951527;29;20184;-82
2022/12/08 04:14:06;;;;;;;25.23;13.60;;;4.40;99.90;;;;;;4937911;29;20180;-85
2022/12/08 04:16:32;;;;;;;24.97;13.47;;;4.40;99.90;;;;;;4942793;29;20176;-87
2022/12/08 04:18:58;;;;;;;25.67;13.17;;;4.30;99.90;;;;;;4940593;29;20212;-86
2022/12/08 04:21:24;;;;;;;24.90;13.37;;;4.40;99.90;;;;;;4941000;29;20168;-87
2022/12/08 04:23:50;;;;;;;25.13;13.90;;;4.40;99.90;;;;;;4940139;29;20628;-87
2022/12/08 04:26:16;;;;;;;25.23;14.33;;;4.40;99.90;;;;;;4940799;29;20204;-87
2022/12/08 04:28:43;;;;;;;23.73;13.70;;;4.40;99.90;;;;;;4941337;29;20179;-86
2022/12/08 04:31:09;;;;;;;26.47;13.90;;;4.40;99.90;;;;;;4942573;29;20174;-81
2022/12/08 04:33:34;;;;;;;24.10;13.93;;;4.40;99.90;;;;;;4930607;29;20345;-87
2022/12/08 04:36:02;;;;;;;23.53;13.53;;;4.40;99.90;;;;;;4940239;29;20168;-88
2022/12/08 04:38:27;;;;;;;19.70;12.67;;;4.40;99.90;;;;;;4939844;29;20655;-87
2022/12/08 04:40:53;;;;;;;24.07;12.67;;;4.40;99.90;;;;;;4923128;29;20195;-87
2022/12/08 04:43:20;;;;;;;22.00;13.17;;;4.40;99.90;;;;;;4940247;29;20200;-89
2022/12/08 04:45:46;;;;;;;24.87;13.27;;;4.40;99.90;;;;;;4940221;29;20177;-88
2022/12/08 04:48:12;;;;;;;23.83;12.60;;;4.50;99.90;;;;;;4942980;29;20178;-89
2022/12/08 04:50:43;;;;;;;27.00;14.20;;;4.40;99.90;;;;;;4958662;29;20243;-87
2022/12/08 04:53:10;;;;;;;24.23;13.57;;;4.40;99.90;;;;;;4956055;29;20164;-85
2022/12/08 04:55:43;;;;;;;23.87;13.23;;;4.40;99.90;;;;;;4940335;29;20626;-86
2022/12/08 04:58:18;;;;;;;23.47;12.70;;;4.30;99.90;;;;;;4939504;29;20231;-87
2022/12/08 05:00:45;;;;;;;22.90;13.17;;;4.30;99.90;;;;;;4923719;29;20226;-84
2022/12/08 05:03:12;;;;;;;21.33;13.10;;;4.40;99.90;;;;;;4952593;29;20211;-86
2022/12/08 05:05:37;;;;;;;21.53;12.73;;;4.40;99.90;;;;;;4946985;29;20176;-88
2022/12/08 05:08:04;;;;;;;25.07;12.83;;;4.40;99.90;;;;;;4942246;29;20230;-87
2022/12/08 05:10:31;;;;;;;20.33;11.83;;;4.30;99.90;;;;;;4942812;29;20208;-80
2022/12/08 05:12:59;;;;;;;20.40;12.37;;;4.40;99.90;;;;;;4948720;29;20180;-86
2022/12/08 05:15:28;;;;;;;19.57;11.37;;;4.30;99.90;;;;;;4951482;29;20178;-83
2022/12/08 05:17:54;;;;;;;19.70;12.27;;;4.30;99.90;;;;;;4928897;29;20180;-85
2022/12/08 05:20:20;;;;;;;18.13;11.10;;;4.30;99.90;;;;;;4941562;29;20238;-83
2022/12/08 05:22:46;;;;;;;21.37;12.10;;;4.30;99.90;;;;;;4939383;29;20563;-84
2022/12/08 05:25:12;;;;;;;19.83;12.27;;;4.30;99.90;;;;;;4921660;29;20217;-83
2022/12/08 05:27:37;;;;;;;20.13;12.30;;;4.30;99.90;;;;;;4940880;29;20180;-85
2022/12/08 05:30:04;;;;;;;19.43;11.63;;;4.30;99.90;;;;;;4941675;29;20178;-83
2022/12/08 05:32:30;;;;;;;20.37;11.90;;;4.30;99.90;;;;;;4922461;29;20213;-86
2022/12/08 05:34:56;;;;;;;21.43;12.77;;;4.30;99.90;;;;;;4939710;29;20175;-82
2022/12/08 05:37:22;;;;;;;19.73;11.83;;;4.30;99.90;;;;;;4943371;29;20239;-81
2022/12/08 05:39:51;;;;;;;22.23;12.67;;;4.40;99.90;;;;;;4942778;29;20683;-82
2022/12/08 05:42:17;;;;;;;21.43;12.60;;;4.30;99.90;;;;;;4940170;29;20176;-81
2022/12/08 05:44:43;;;;;;;22.33;12.37;;;4.30;99.90;;;;;;4939690;29;20572;-81
2022/12/08 05:47:08;;;;;;;22.23;13.17;;;4.30;99.90;;;;;;4938219;29;20215;-83
2022/12/08 05:49:34;;;;;;;22.87;12.27;;;4.40;99.90;;;;;;4938086;29;20215;-82
2022/12/08 05:52:00;;;;;;;20.43;12.33;;;4.40;99.90;;;;;;4939107;29;20307;-81
2022/12/08 05:54:26;;;;;;;23.47;13.53;;;4.40;99.90;;;;;;4941676;29;20187;-87
2022/12/08 05:56:51;;;;;;;22.03;12.17;;;4.40;99.90;;;;;;4943416;29;20192;-88
2022/12/08 05:59:18;;;;;;;21.07;12.97;;;4.40;99.90;;;;;;4948359;29;20271;-87
2022/12/08 06:01:43;;;;;;;20.77;12.03;;;4.40;99.90;;;;;;4953986;28;20232;-88
2022/12/08 06:04:09;;;;;;;20.00;12.27;;;4.30;99.90;;;;;;4941257;29;20662;-87
2022/12/08 06:06:35;;;;;;;22.40;11.23;;;4.30;99.90;;;;;;4940204;29;20185;-87
2022/12/08 06:09:03;;;;;;;23.57;12.23;;;4.20;99.90;;;;;;4939433;29;20184;-87
2022/12/08 06:11:31;;;;;;;21.57;12.93;;;4.30;99.90;;;;;;4939358;29;20265;-87
2022/12/08 06:13:58;;;;;;;20.30;11.70;;;4.30;99.90;;;;;;4939545;29;20266;-82
2022/12/08 06:16:25;;;;;;;18.33;11.70;;;4.40;99.90;;;;;;4941694;29;20175;-81
2022/12/08 06:18:51;;;;;;;23.13;12.57;;;4.50;99.90;;;;;;4962134;29;20222;-81
2022/12/08 06:21:18;;;;;;;23.67;12.53;;;4.40;99.90;;;;;;4941220;29;20199;-87
2022/12/08 06:23:48;;;;;;;24.77;12.20;;;4.40;99.90;;;;;;4923736;29;20639;-87
2022/12/08 06:26:15;;;;;;;22.13;12.57;;;4.40;99.90;;;;;;4941371;29;20690;-85
2022/12/08 06:28:41;;;;;;;21.63;11.73;;;4.30;99.90;;;;;;4967673;28;20185;-87
2022/12/08 06:31:10;;;;;;;20.27;11.97;;;4.30;99.90;;;;;;4944542;29;20182;-87
2022/12/08 06:33:37;;;;;;;19.83;12.20;;;4.40;99.90;;;;;;4937814;29;20211;-88
2022/12/08 06:36:05;;;;;;;19.43;12.10;;;4.40;99.90;;;;;;4938902;29;20711;-85
2022/12/08 06:38:30;;;;;;;17.03;11.93;;;4.40;99.90;;;;;;4939208;29;20204;-82
2022/12/08 06:40:57;;;;;;;22.13;12.57;;;4.40;99.90;;;;;;4938153;29;20182;-80
2022/12/08 06:43:24;;;;;;;23.33;12.70;;;4.40;99.90;;;;;;4925436;29;20669;-80
2022/12/08 06:45:51;;;;;;;25.40;12.33;;;4.30;99.90;;;;;;4939582;29;20626;-80
2022/12/08 06:48:17;;;;;;;18.50;11.03;;;4.40;99.90;;;;;;4938473;29;20176;-80
2022/12/08 06:50:43;;;;;;;20.43;11.73;;;4.30;99.90;;;;;;4940821;29;20196;-84
2022/12/08 06:53:14;;;;;;;20.40;12.17;;;4.30;99.90;;;;;;4922199;29;20179;-80
2022/12/08 06:55:44;;;;;;;22.50;12.90;;;4.40;99.90;;;;;;4943391;29;20179;-79
2022/12/08 06:58:10;;;;;;;20.27;12.27;;;4.40;99.90;;;;;;4939954;29;20199;-80
2022/12/08 07:00:36;;;;;;;22.10;13.27;;;4.40;99.90;;;;;;4938104;29;20223;-84
2022/12/08 07:03:02;;;;;;;21.20;12.40;;;4.40;99.90;;;;;;4938039;29;20616;-82
2022/12/08 07:05:34;;;;;;;21.40;12.20;;;4.40;99.90;;;;;;4940629;29;20188;-86
2022/12/08 07:07:59;;;;;;;23.43;12.60;;;4.30;99.90;;;;;;4940311;29;20172;-80
2022/12/08 07:10:26;;;;;;;24.33;13.73;;;4.40;99.90;;;;;;4939307;29;20602;-81
2022/12/08 07:12:52;;;;;;;25.03;13.87;;;4.40;99.90;;;;;;4938197;29;20183;-81
2022/12/08 07:15:18;;;;;;;24.03;13.00;;;4.40;99.90;;;;;;4949962;29;20183;-85
2022/12/08 07:17:44;;;;;;;20.87;12.83;;;4.40;99.90;;;;;;4924074;29;20178;-86
2022/12/08 07:20:10;;;;;;;23.67;13.90;;;4.50;99.90;;;;;;4935687;29;20184;-85
2022/12/08 07:22:35;;;;;;;24.40;12.67;;;4.50;99.90;;;;;;4935999;29;20168;-84
2022/12/08 07:25:01;;;;;;;26.63;14.63;;;4.40;99.90;;;;;;4935749;29;20227;-87
2022/12/08 07:27:27;;;;;;;23.43;13.27;;;4.50;99.90;;;;;;4937588;29;20176;-85
2022/12/08 07:29:53;;;;;;;26.70;13.93;;;4.50;99.90;;;;;;4941301;29;20674;-85
2022/12/08 07:32:19;;;;;;;26.40;13.20;;;4.50;99.90;;;;;;4937941;29;20179;-84
2022/12/08 07:34:44;;;;;;;27.43;13.63;;;4.50;99.90;;;;;;4937187;29;20178;-86
2022/12/08 07:37:10;;;;;;;29.43;14.77;;;4.50;99.90;;;;;;4937004;29;20173;-86
2022/12/08 07:39:36;;;;;;;27.30;14.27;;;4.50;99.90;;;;;;4921850;29;20644;-86
2022/12/08 07:42:02;;;;;;;27.37;13.77;;;4.50;99.90;;;;;;4925864;29;20222;-87
2022/12/08 07:44:27;;;;;;;29.93;14.73;;;4.50;99.90;;;;;;4943878;29;20183;-83
2022/12/08 07:46:53;;;;;;;23.43;13.23;;;4.50;99.90;;;;;;4945507;29;20176;-82
2022/12/08 07:49:20;;;;;;;25.17;13.47;;;4.60;99.90;;;;;;4952252;29;20223;-86
2022/12/08 07:51:45;;;;;;;23.67;13.80;;;4.60;99.90;;;;;;4945658;29;20188;-86
2022/12/08 07:54:12;;;;;;;22.40;13.07;;;4.60;99.90;;;;;;4927363;29;20214;-87
2022/12/08 07:56:38;;;;;;;27.00;13.63;;;4.60;99.90;;;;;;4941420;29;20259;-87
2022/12/08 07:59:03;;;;;;;27.27;14.00;;;4.60;99.90;;;;;;4940710;29;20257;-85
2022/12/08 08:01:32;;;;;;;28.97;14.47;;;4.70;99.90;;;;;;4939623;29;20227;-85
2022/12/08 08:04:03;;;;;;;30.73;15.07;;;4.80;99.90;;;;;;4940313;29;20192;-84
2022/12/08 08:06:31;;;;;;;26.27;13.67;;;4.80;99.90;;;;;;4946861;29;20235;-84
2022/12/08 08:08:57;;;;;;;21.67;12.33;;;4.80;99.90;;;;;;4941932;29;20183;-85
2022/12/08 08:11:23;;;;;;;26.97;14.07;;;5.00;99.90;;;;;;4940782;29;20180;-83
2022/12/08 08:13:49;;;;;;;25.80;13.47;;;4.90;99.90;;;;;;4939323;29;20662;-86
2022/12/08 08:16:16;;;;;;;27.03;14.43;;;4.90;99.90;;;;;;4943128;29;20644;-84
2022/12/08 08:18:42;;;;;;;27.67;15.10;;;4.80;99.90;;;;;;4944276;29;20232;-86
2022/12/08 08:21:08;;;;;;;27.53;14.23;;;4.70;99.90;;;;;;4947523;29;20233;-86
2022/12/08 08:23:34;;;;;;;29.93;14.30;;;4.80;99.90;;;;;;4942730;29;20588;-88
2022/12/08 08:26:04;;;;;;;30.50;15.50;;;4.90;99.90;;;;;;4923658;29;20192;-86
2022/12/08 08:28:30;;;;;;;28.13;14.50;;;4.90;99.90;;;;;;4938323;29;20181;-80
2022/12/08 08:30:57;;;;;;;29.47;15.40;;;4.90;99.90;;;;;;4921933;29;20548;-79
2022/12/08 08:33:23;;;;;;;29.63;14.20;;;4.70;99.90;;;;;;4939913;29;20374;-84
2022/12/08 08:35:48;;;;;;;26.57;14.30;;;4.80;99.90;;;;;;4938911;29;20216;-84
2022/12/08 08:38:14;;;;;;;28.43;14.87;;;4.90;99.90;;;;;;4940829;29;20210;-82
2022/12/08 08:40:40;;;;;;;23.60;13.10;;;4.90;99.90;;;;;;4940301;29;20657;-79
2022/12/08 08:43:06;;;;;;;24.80;13.97;;;4.90;99.90;;;;;;4947718;29;20181;-84
2022/12/08 08:45:32;;;;;;;28.97;14.63;;;4.90;99.90;;;;;;4942319;29;20173;-81
2022/12/08 08:47:58;;;;;;;32.23;15.00;;;4.90;99.90;;;;;;4938815;29;20207;-82
2022/12/08 08:50:24;;;;;;;27.40;14.60;;;5.00;99.90;;;;;;4939495;29;20259;-86
2022/12/08 08:52:50;;;;;;;27.80;13.77;;;5.00;99.90;;;;;;4937482;29;20188;-83
2022/12/08 08:55:16;;;;;;;30.17;15.60;;;4.90;99.90;;;;;;4938580;29;20536;-83
2022/12/08 08:57:42;;;;;;;25.30;14.43;;;4.80;99.90;;;;;;4938879;29;20176;-81
2022/12/08 09:00:09;;;;;;;26.33;14.37;;;4.90;99.90;;;;;;4939270;29;20543;-81
2022/12/08 09:02:36;;;;;;;27.27;13.87;;;4.90;99.90;;;;;;4937584;29;20300;-77
2022/12/08 09:05:02;;;;;;;25.40;13.47;;;4.90;99.90;;;;;;4920795;29;20192;-78
2022/12/08 09:07:28;;;;;;;27.43;15.10;;;4.90;99.90;;;;;;4936135;29;20235;-79
2022/12/08 09:09:54;;;;;;;27.97;14.53;;;4.90;99.90;;;;;;4937686;29;20183;-81
2022/12/08 09:12:20;;;;;;;24.47;14.07;;;4.90;99.90;;;;;;4935515;29;20186;-78
2022/12/08 09:14:52;;;;;;;25.37;13.67;;;5.00;99.90;;;;;;4936639;29;20177;-83
2022/12/08 09:17:18;;;;;;;24.63;14.33;;;5.10;99.90;;;;;;4919892;29;20175;-79
2022/12/08 09:19:44;;;;;;;26.87;15.37;;;5.10;99.90;;;;;;4937720;29;20218;-83
2022/12/08 09:22:10;;;;;;;24.00;15.07;;;5.10;99.90;;;;;;4938605;29;20281;-85
2022/12/08 09:24:38;;;;;;;23.97;14.30;;;5.10;99.90;;;;;;4941841;29;20235;-85
2022/12/08 09:27:04;;;;;;;20.63;12.83;;;5.10;99.90;;;;;;4941910;29;20631;-84
2022/12/08 09:29:30;;;;;;;22.43;12.93;;;5.20;99.90;;;;;;4937718;29;20204;-84
2022/12/08 09:31:56;;;;;;;21.07;12.13;;;5.10;99.90;;;;;;4942762;29;20588;-86
2022/12/08 09:34:21;;;;;;;22.37;12.53;;;5.10;99.90;;;;;;4944141;29;20266;-84
2022/12/08 09:36:47;;;;;;;25.00;14.37;;;5.10;99.90;;;;;;4938913;29;20184;-83
2022/12/08 09:39:13;;;;;;;22.03;13.00;;;5.10;99.90;;;;;;4940993;29;20212;-85
2022/12/08 09:41:44;;;;;;;21.70;12.20;;;5.10;99.90;;;;;;4927651;29;20187;-84
2022/12/08 09:44:47;;;;;;;23.30;13.30;;;5.10;99.90;;;;;;4924777;29;20183;-83
2022/12/08 09:47:38;;;;;;;23.50;13.00;;;5.20;99.90;;;;;;4940397;29;20172;-84
2022/12/08 09:50:31;;;;;;;26.20;13.33;;;5.20;99.90;;;;;;4924368;29;20208;-82
2022/12/08 09:53:18;;;;;;;25.30;13.77;;;5.20;99.90;;;;;;4943146;29;20605;-82
2022/12/08 09:55:56;;;;;;;22.77;12.23;;;5.00;99.90;;;;;;4939660;29;20171;-80
2022/12/08 09:58:52;;;;;;;23.00;12.70;;;5.10;99.90;;;;;;4936286;29;20317;-78
2022/12/08 10:01:20;;;;;;;22.93;13.43;;;5.10;99.90;;;;;;4934801;29;20259;-81
2022/12/08 10:03:47;;;;;;;22.97;13.73;;;5.10;99.90;;;;;;4937389;29;20176;-82
2022/12/08 10:06:31;;;;;;;24.60;13.97;;;5.10;99.90;;;;;;4936485;29;20263;-83
2022/12/08 10:09:30;;;;;;;21.20;12.27;;;5.10;99.90;;;;;;4919574;29;20188;-83
2022/12/08 10:12:25;;;;;;;25.23;14.10;;;5.10;99.90;;;;;;4941440;29;20176;-85
2022/12/08 10:15:28;;;;;;;25.10;13.50;;;5.10;99.90;;;;;;4948680;29;20184;-82
2022/12/08 10:17:59;;;;;;;20.43;12.63;;;5.10;99.90;;;;;;4953594;29;20178;-81
2022/12/08 10:20:36;;;;;;;23.63;13.17;;;5.10;99.90;;;;;;4934303;29;20172;-82
2022/12/08 10:23:02;;;;;;;22.43;12.83;;;5.10;99.90;;;;;;4954522;29;20710;-80
2022/12/08 10:25:39;;;;;;;23.30;13.03;;;5.10;99.90;;;;;;4953905;28;20188;-81
2022/12/08 10:28:07;;;;;;;22.00;12.40;;;5.20;99.90;;;;;;4955508;29;20175;-80
2022/12/08 10:30:33;;;;;;;23.63;13.27;;;5.20;99.90;;;;;;4959664;29;20183;-82
2022/12/08 10:32:59;;;;;;;22.47;13.00;;;5.30;99.90;;;;;;4956775;29;20172;-83
2022/12/08 10:35:48;;;;;;;24.63;12.53;;;5.40;99.90;;;;;;4935246;29;20176;-81
2022/12/08 10:38:19;;;;;;;26.00;13.47;;;5.30;99.90;;;;;;4936380;29;20219;-80
2022/12/08 10:40:47;;;;;;;23.97;13.17;;;5.20;99.90;;;;;;4937373;29;20180;-82
2022/12/08 10:43:22;;;;;;;25.30;13.10;;;5.20;99.90;;;;;;4936411;29;20283;-83
2022/12/08 10:45:48;;;;;;;20.87;12.23;;;5.20;99.90;;;;;;4934859;29;20258;-80
2022/12/08 10:48:22;;;;;;;23.77;13.83;;;5.20;99.90;;;;;;4935654;29;20267;-80
2022/12/08 10:50:53;;;;;;;22.40;13.03;;;5.20;99.90;;;;;;4935166;29;20206;-78
2022/12/08 10:53:25;;;;;;;25.07;13.13;;;5.20;99.90;;;;;;4933857;29;20191;-84
2022/12/08 10:55:57;;;;;;;21.77;12.87;;;5.30;99.90;;;;;;4935027;29;20165;-84
2022/12/08 10:58:32;;;;;;;28.10;13.60;;;5.30;99.90;;;;;;4936373;29;20206;-83
2022/12/08 11:01:04;;;;;;;24.60;12.73;;;5.30;99.90;;;;;;4937543;29;20712;-79
2022/12/08 11:03:34;;;;;;;23.90;13.47;;;5.20;99.90;;;;;;4936172;29;20540;-81
2022/12/08 11:06:10;;;;;;;21.17;12.67;;;5.30;99.90;;;;;;4934255;29;20190;-78
2022/12/08 11:08:47;;;;;;;21.40;12.90;;;5.30;99.90;;;;;;4929598;29;20180;-80
2022/12/08 11:11:13;;;;;;;21.17;12.17;;;5.40;99.90;;;;;;4934338;29;20183;-77
2022/12/08 11:13:41;;;;;;;21.90;12.87;;;5.40;99.90;;;;;;4936188;29;20180;-83
2022/12/08 11:16:09;;;;;;;30.20;15.63;;;5.30;99.90;;;;;;4924386;29;20184;-83
2022/12/08 11:18:54;;;;;;;24.23;13.83;;;5.40;99.90;;;;;;4941731;29;20199;-85
2022/12/08 11:21:19;;;;;;;25.37;14.60;;;5.50;99.90;;;;;;4941722;29;20247;-84
2022/12/08 11:23:48;;;;;;;22.10;13.30;;;5.50;99.90;;;;;;4941516;29;20215;-85
2022/12/08 11:26:34;;;;;;;23.67;13.83;;;5.40;99.90;;;;;;4942900;29;20656;-85
2022/12/08 11:29:00;;;;;;;23.30;13.00;;;5.40;99.90;;;;;;4926420;29;20188;-83
2022/12/08 11:31:43;;;;;;;24.50;13.67;;;5.40;99.90;;;;;;4941774;29;20203;-84
2022/12/08 11:34:26;;;;;;;25.97;13.70;;;5.40;99.90;;;;;;4940468;29;20198;-82
2022/12/08 11:36:54;;;;;;;26.80;13.60;;;5.40;99.90;;;;;;4941354;29;20176;-83
2022/12/08 11:39:21;;;;;;;26.37;14.30;;;5.40;99.90;;;;;;4923574;29;20216;-79
2022/12/08 11:41:49;;;;;;;25.67;14.40;;;5.40;99.90;;;;;;4938821;29;20351;-79
2022/12/08 11:44:33;;;;;;;30.13;15.60;;;5.50;99.90;;;;;;4922191;29;20184;-78
2022/12/08 11:47:38;;;;;;;29.07;14.60;;;5.50;99.90;;;;;;4939224;29;20169;-78
2022/12/08 11:50:28;;;;;;;24.17;14.17;;;5.50;99.90;;;;;;4862119;29;20192;-80
2022/12/08 11:52:55;;;;;;;25.33;13.43;;;5.40;99.90;;;;;;4862087;29;20191;-79
2022/12/08 11:55:40;;;;;;;22.50;13.03;;;5.40;99.90;;;;;;4860831;29;20191;-79
2022/12/08 11:58:17;;;;;;;24.70;13.33;;;5.50;99.90;;;;;;4862236;29;20733;-80
2022/12/08 12:00:43;;;;;;;23.00;13.20;;;5.40;99.90;;;;;;4862711;29;20218;-80
2022/12/08 12:03:34;;;;;;;23.60;12.30;;;5.40;99.90;;;;;;4863821;29;20181;-81
2022/12/08 12:06:02;;;;;;;22.23;12.73;;;5.40;99.90;;;;;;4863450;29;20211;-79
2022/12/08 12:08:33;;;;;;;23.90;13.33;;;5.40;99.90;;;;;;4862850;29;20516;-78
2022/12/08 12:12:11;;;;;;;28.17;13.87;;;5.40;99.90;;;;;;4861998;29;20242;-80
2022/12/08 12:14:34;;;;;;;21.97;12.87;;;5.50;99.90;;;;;;4860919;29;20249;-79
2022/12/08 12:17:04;;;;;;;22.77;12.70;;;5.50;99.90;;;;;;4860619;29;20626;-80
2022/12/08 12:19:35;;;;;;;22.00;12.20;;;5.60;99.90;;;;;;4862711;29;20222;-79
2022/12/08 12:22:16;;;;;;;19.57;11.53;;;5.50;99.90;;;;;;4861311;29;20216;-79
2022/12/08 12:24:46;;;;;;;26.03;13.07;;;5.60;99.90;;;;;;4873183;29;20289;-83
2022/12/08 12:27:15;;;;;;;22.37;12.00;;;5.60;99.90;;;;;;4938334;29;20642;-80
2022/12/08 12:29:52;;;;;;;23.90;11.83;;;5.70;99.90;;;;;;4936866;29;20256;-81
2022/12/08 12:32:18;;;;;;;27.33;12.40;;;5.70;99.90;;;;;;4937885;29;20715;-80
2022/12/08 12:34:57;;;;;;;22.83;12.57;;;5.60;99.90;;;;;;4937422;29;20707;-80
2022/12/08 12:37:38;;;;;;;25.37;11.83;;;5.60;99.90;;;;;;4937307;29;20612;-81
2022/12/08 12:40:16;;;;;;;26.43;13.30;;;5.70;99.90;;;;;;4920266;29;20219;-80
2022/12/08 12:42:46;;;;;;;23.97;13.17;;;5.70;99.90;;;;;;4938245;29;20784;-82
2022/12/08 12:45:15;;;;;;;20.90;12.77;;;5.60;99.90;;;;;;4937915;29;20215;-83
2022/12/08 12:47:59;;;;;;;23.80;12.93;;;5.70;99.90;;;;;;4938650;29;20312;-80
2022/12/08 12:50:34;;;;;;;20.87;11.47;;;5.70;99.90;;;;;;4939756;29;20186;-80
2022/12/08 12:53:25;;;;;;;23.00;12.73;;;5.80;99.90;;;;;;4938230;29;20191;-81
2022/12/08 12:55:56;;;;;;;20.00;11.50;;;5.70;99.90;;;;;;4937412;29;20575;-81
2022/12/08 12:58:22;;;;;;;21.50;12.23;;;5.80;99.90;;;;;;4938634;29;20907;-81